This is the latest recevied weather packets stored in our database for station/object KF5JED-13. If no packets are shown the sender has not sent any weather packets the latest 10 day(s).
| Time | Temp. | Humidity | Pressure | Rain* | Wind** | Luminosity | Snow |
|---|---|---|---|---|---|---|---|
| 1777870741 | 13.89° C | 48% | 1012.2 hPa | 0 mm | - | 0 W/m² | - |
| 1777870436 | 13.89° C | 47% | 1012.2 hPa | 0 mm | - | 0 W/m² | - |
| 1777870133 | 14.44° C | 46% | 1012 hPa | 0 mm | - | 0 W/m² | - |
| 1777869830 | 15° C | 45% | 1012.1 hPa | 0 mm | - | 0 W/m² | - |
| 1777869528 | 15° C | 45% | 1012.2 hPa | 0 mm | - | 0 W/m² | - |
| 1777869224 | 15° C | 45% | 1012.2 hPa | 0 mm | - | 0 W/m² | - |
| 1777868922 | 15° C | 44% | 1012.3 hPa | 0 mm | - | 0 W/m² | - |
| 1777868618 | 15° C | 45% | 1012.5 hPa | 0 mm | - | 0 W/m² | - |
| 1777868315 | 14.44° C | 45% | 1012.5 hPa | 0 mm | - | 0 W/m² | - |
| 1777868011 | 14.44° C | 46% | 1012.3 hPa | 0 mm | - | 0 W/m² | - |
| 1777867707 | 14.44° C | 45% | 1012.2 hPa | 0 mm | - | 0 W/m² | - |
| 1777867100 | 14.44° C | 46% | 1012.5 hPa | 0 mm | - | 0 W/m² | - |
| 1777866798 | 14.44° C | 46% | 1012.6 hPa | 0 mm | - | 0 W/m² | - |
| 1777866193 | 13.89° C | 47% | 1012.3 hPa | 0 mm | - | 0 W/m² | - |
| 1777865890 | 13.89° C | 46% | 1012.5 hPa | 0 mm | - | 0 W/m² | - |
| 1777865588 | 15.56° C | 43% | 1012.6 hPa | 0 mm | - | 0 W/m² | - |
| 1777865284 | 16.11° C | 42% | 1012.6 hPa | 0 mm | - | 0 W/m² | - |
| 1777848006 | 25.56° C | 25% | 1012.7 hPa | 0 mm | - | 455 W/m² | - |
| 1777846795 | 25.56° C | 25% | 1012.9 hPa | 0 mm | - | 516 W/m² | - |
| 1777844978 | 25° C | 25% | 1013.6 hPa | 0 mm | - | 609 W/m² | - |
| 1777844071 | 25.56° C | 25% | 1013.8 hPa | 0 mm | - | 685 W/m² | - |
| 1777843766 | 25.56° C | 25% | 1013.8 hPa | 0 mm | - | 700 W/m² | - |
| 1777840732 | 25° C | 24% | 1014.8 hPa | 0 mm | - | 794 W/m² | - |
| 1777840430 | 25° C | 25% | 1015 hPa | 0 mm | - | 787 W/m² | - |
| 1777840126 | 25.56° C | 24% | 1015.2 hPa | 0 mm | - | 817 W/m² | - |
* Rain latest hour (hover to see other rain measurements)
** Current wind speed in m/s (hover to see current wind gust speed)